sensor_id;sensor_type;location;lat;lon;timestamp;P1;durP1;ratioP1;P2;durP2;ratioP2
8592;SDS011;4334;49.982;8.398;2023-04-15T00:01:17;7.17;;;3.90;;
8592;SDS011;4334;49.982;8.398;2023-04-15T00:03:44;7.30;;;4.40;;
8592;SDS011;4334;49.982;8.398;2023-04-15T00:06:11;9.20;;;3.90;;
8592;SDS011;4334;49.982;8.398;2023-04-15T00:08:40;8.90;;;3.57;;
8592;SDS011;4334;49.982;8.398;2023-04-15T00:11:07;8.10;;;3.80;;
8592;SDS011;4334;49.982;8.398;2023-04-15T00:13:36;6.67;;;3.83;;
8592;SDS011;4334;49.982;8.398;2023-04-15T00:16:04;8.03;;;3.87;;
8592;SDS011;4334;49.982;8.398;2023-04-15T00:18:31;6.50;;;3.93;;
8592;SDS011;4334;49.982;8.398;2023-04-15T00:20:58;8.80;;;3.80;;
8592;SDS011;4334;49.982;8.398;2023-04-15T00:23:25;9.80;;;4.10;;
8592;SDS011;4334;49.982;8.398;2023-04-15T00:25:53;6.63;;;4.03;;
8592;SDS011;4334;49.982;8.398;2023-04-15T00:28:20;5.97;;;3.97;;
8592;SDS011;4334;49.982;8.398;2023-04-15T00:30:47;7.93;;;4.30;;
8592;SDS011;4334;49.982;8.398;2023-04-15T00:33:14;6.20;;;3.90;;
8592;SDS011;4334;49.982;8.398;2023-04-15T00:35:41;8.53;;;4.17;;
8592;SDS011;4334;49.982;8.398;2023-04-15T00:38:08;7.13;;;4.43;;
8592;SDS011;4334;49.982;8.398;2023-04-15T00:40:35;6.93;;;4.23;;
8592;SDS011;4334;49.982;8.398;2023-04-15T00:43:04;10.57;;;4.23;;
8592;SDS011;4334;49.982;8.398;2023-04-15T00:45:31;11.07;;;4.30;;
8592;SDS011;4334;49.982;8.398;2023-04-15T00:47:58;10.47;;;4.00;;
8592;SDS011;4334;49.982;8.398;2023-04-15T00:50:25;10.60;;;4.50;;
8592;SDS011;4334;49.982;8.398;2023-04-15T00:52:51;6.17;;;4.00;;
8592;SDS011;4334;49.982;8.398;2023-04-15T00:55:18;6.73;;;4.30;;
8592;SDS011;4334;49.982;8.398;2023-04-15T00:57:45;6.07;;;3.70;;
8592;SDS011;4334;49.982;8.398;2023-04-15T01:00:13;8.47;;;4.17;;
8592;SDS011;4334;49.982;8.398;2023-04-15T01:02:40;6.80;;;3.87;;
8592;SDS011;4334;49.982;8.398;2023-04-15T01:05:07;5.30;;;3.80;;
8592;SDS011;4334;49.982;8.398;2023-04-15T01:07:37;7.73;;;4.20;;
8592;SDS011;4334;49.982;8.398;2023-04-15T01:10:04;9.30;;;4.13;;
8592;SDS011;4334;49.982;8.398;2023-04-15T01:12:36;8.27;;;4.13;;
8592;SDS011;4334;49.982;8.398;2023-04-15T01:15:04;8.70;;;4.20;;
8592;SDS011;4334;49.982;8.398;2023-04-15T01:17:33;12.43;;;4.63;;
8592;SDS011;4334;49.982;8.398;2023-04-15T01:20:00;7.33;;;4.10;;
8592;SDS011;4334;49.982;8.398;2023-04-15T01:22:29;7.97;;;4.63;;
8592;SDS011;4334;49.982;8.398;2023-04-15T01:24:58;7.63;;;3.87;;
8592;SDS011;4334;49.982;8.398;2023-04-15T01:27:30;7.50;;;4.23;;
8592;SDS011;4334;49.982;8.398;2023-04-15T01:29:57;7.67;;;4.53;;
8592;SDS011;4334;49.982;8.398;2023-04-15T01:32:24;13.50;;;5.17;;
8592;SDS011;4334;49.982;8.398;2023-04-15T01:34:51;10.10;;;4.50;;
8592;SDS011;4334;49.982;8.398;2023-04-15T01:37:17;8.40;;;5.30;;
8592;SDS011;4334;49.982;8.398;2023-04-15T01:39:44;10.23;;;4.70;;
8592;SDS011;4334;49.982;8.398;2023-04-15T01:42:11;11.10;;;5.33;;
8592;SDS011;4334;49.982;8.398;2023-04-15T01:44:39;8.20;;;4.70;;
8592;SDS011;4334;49.982;8.398;2023-04-15T01:47:06;7.90;;;4.60;;
8592;SDS011;4334;49.982;8.398;2023-04-15T01:49:33;7.93;;;4.57;;
8592;SDS011;4334;49.982;8.398;2023-04-15T01:52:00;9.60;;;4.93;;
8592;SDS011;4334;49.982;8.398;2023-04-15T01:54:26;7.50;;;4.30;;
8592;SDS011;4334;49.982;8.398;2023-04-15T01:56:53;13.33;;;4.63;;
8592;SDS011;4334;49.982;8.398;2023-04-15T01:59:20;9.97;;;4.83;;
8592;SDS011;4334;49.982;8.398;2023-04-15T02:01:49;7.60;;;4.53;;
8592;SDS011;4334;49.982;8.398;2023-04-15T02:04:16;8.80;;;4.87;;
8592;SDS011;4334;49.982;8.398;2023-04-15T02:06:43;12.93;;;4.90;;
8592;SDS011;4334;49.982;8.398;2023-04-15T02:09:10;6.70;;;4.70;;
8592;SDS011;4334;49.982;8.398;2023-04-15T02:11:36;11.43;;;5.00;;
8592;SDS011;4334;49.982;8.398;2023-04-15T02:14:03;7.37;;;4.90;;
8592;SDS011;4334;49.982;8.398;2023-04-15T02:16:30;9.43;;;4.90;;
8592;SDS011;4334;49.982;8.398;2023-04-15T02:18:59;6.93;;;4.67;;
8592;SDS011;4334;49.982;8.398;2023-04-15T02:21:27;6.50;;;4.63;;
8592;SDS011;4334;49.982;8.398;2023-04-15T02:23:54;9.63;;;5.03;;
8592;SDS011;4334;49.982;8.398;2023-04-15T02:26:21;8.93;;;5.00;;
8592;SDS011;4334;49.982;8.398;2023-04-15T02:28:49;8.37;;;4.57;;
8592;SDS011;4334;49.982;8.398;2023-04-15T02:31:16;9.40;;;5.17;;
8592;SDS011;4334;49.982;8.398;2023-04-15T02:33:43;6.37;;;4.67;;
8592;SDS011;4334;49.982;8.398;2023-04-15T02:36:12;9.20;;;4.63;;
8592;SDS011;4334;49.982;8.398;2023-04-15T02:38:38;9.13;;;4.37;;
8592;SDS011;4334;49.982;8.398;2023-04-15T02:41:07;9.23;;;4.43;;
8592;SDS011;4334;49.982;8.398;2023-04-15T02:43:34;6.37;;;4.43;;
8592;SDS011;4334;49.982;8.398;2023-04-15T02:46:02;6.97;;;4.63;;
8592;SDS011;4334;49.982;8.398;2023-04-15T02:48:28;11.33;;;4.70;;
8592;SDS011;4334;49.982;8.398;2023-04-15T02:51:09;9.37;;;4.43;;
8592;SDS011;4334;49.982;8.398;2023-04-15T02:53:38;7.37;;;4.67;;
8592;SDS011;4334;49.982;8.398;2023-04-15T02:56:05;6.43;;;4.50;;
8592;SDS011;4334;49.982;8.398;2023-04-15T02:58:33;7.70;;;4.80;;
8592;SDS011;4334;49.982;8.398;2023-04-15T03:01:00;9.10;;;4.57;;
8592;SDS011;4334;49.982;8.398;2023-04-15T03:03:27;7.27;;;4.70;;
8592;SDS011;4334;49.982;8.398;2023-04-15T03:05:54;14.03;;;5.50;;
8592;SDS011;4334;49.982;8.398;2023-04-15T03:08:22;6.87;;;4.40;;
8592;SDS011;4334;49.982;8.398;2023-04-15T03:10:48;7.63;;;4.70;;
8592;SDS011;4334;49.982;8.398;2023-04-15T03:13:16;7.23;;;4.37;;
8592;SDS011;4334;49.982;8.398;2023-04-15T03:15:45;8.50;;;4.47;;
8592;SDS011;4334;49.982;8.398;2023-04-15T03:18:12;6.40;;;4.60;;
8592;SDS011;4334;49.982;8.398;2023-04-15T03:20:39;8.90;;;4.50;;
8592;SDS011;4334;49.982;8.398;2023-04-15T03:23:05;5.43;;;4.43;;
8592;SDS011;4334;49.982;8.398;2023-04-15T03:25:33;10.70;;;4.37;;
8592;SDS011;4334;49.982;8.398;2023-04-15T03:28:01;9.73;;;4.53;;
8592;SDS011;4334;49.982;8.398;2023-04-15T03:30:29;12.00;;;4.40;;
8592;SDS011;4334;49.982;8.398;2023-04-15T03:32:55;5.97;;;4.20;;
8592;SDS011;4334;49.982;8.398;2023-04-15T03:35:22;6.77;;;4.70;;
8592;SDS011;4334;49.982;8.398;2023-04-15T03:37:49;9.57;;;4.43;;
8592;SDS011;4334;49.982;8.398;2023-04-15T03:40:16;9.13;;;4.60;;
8592;SDS011;4334;49.982;8.398;2023-04-15T03:42:44;8.47;;;3.90;;
8592;SDS011;4334;49.982;8.398;2023-04-15T03:45:11;10.10;;;4.30;;
8592;SDS011;4334;49.982;8.398;2023-04-15T03:47:38;8.47;;;4.50;;
8592;SDS011;4334;49.982;8.398;2023-04-15T03:50:05;6.40;;;4.60;;
8592;SDS011;4334;49.982;8.398;2023-04-15T03:52:33;10.53;;;4.40;;
8592;SDS011;4334;49.982;8.398;2023-04-15T03:54:59;9.80;;;4.83;;
8592;SDS011;4334;49.982;8.398;2023-04-15T03:57:26;10.13;;;4.70;;
8592;SDS011;4334;49.982;8.398;2023-04-15T03:59:54;9.90;;;4.53;;
8592;SDS011;4334;49.982;8.398;2023-04-15T04:02:21;6.93;;;4.83;;
8592;SDS011;4334;49.982;8.398;2023-04-15T04:04:48;7.67;;;4.70;;
8592;SDS011;4334;49.982;8.398;2023-04-15T04:07:15;9.57;;;5.33;;
8592;SDS011;4334;49.982;8.398;2023-04-15T04:09:42;12.27;;;5.07;;
8592;SDS011;4334;49.982;8.398;2023-04-15T04:12:08;13.17;;;5.27;;
8592;SDS011;4334;49.982;8.398;2023-04-15T04:14:35;15.87;;;5.80;;
8592;SDS011;4334;49.982;8.398;2023-04-15T04:17:03;7.43;;;4.53;;
8592;SDS011;4334;49.982;8.398;2023-04-15T04:19:30;8.83;;;5.30;;
8592;SDS011;4334;49.982;8.398;2023-04-15T04:21:57;12.73;;;5.23;;
8592;SDS011;4334;49.982;8.398;2023-04-15T04:24:24;9.33;;;5.20;;
8592;SDS011;4334;49.982;8.398;2023-04-15T04:26:51;11.27;;;5.33;;
8592;SDS011;4334;49.982;8.398;2023-04-15T04:29:20;10.47;;;5.17;;
8592;SDS011;4334;49.982;8.398;2023-04-15T04:31:47;13.93;;;5.80;;
8592;SDS011;4334;49.982;8.398;2023-04-15T04:34:21;10.63;;;4.47;;
8592;SDS011;4334;49.982;8.398;2023-04-15T04:36:48;13.87;;;4.70;;
8592;SDS011;4334;49.982;8.398;2023-04-15T04:39:14;10.13;;;4.80;;
8592;SDS011;4334;49.982;8.398;2023-04-15T04:41:41;14.27;;;4.87;;
8592;SDS011;4334;49.982;8.398;2023-04-15T04:44:10;7.47;;;4.50;;
8592;SDS011;4334;49.982;8.398;2023-04-15T04:46:36;12.13;;;5.13;;
8592;SDS011;4334;49.982;8.398;2023-04-15T04:49:03;10.57;;;4.57;;
8592;SDS011;4334;49.982;8.398;2023-04-15T04:51:31;11.47;;;4.90;;
8592;SDS011;4334;49.982;8.398;2023-04-15T04:53:58;7.37;;;4.40;;
8592;SDS011;4334;49.982;8.398;2023-04-15T04:56:25;8.03;;;4.47;;
8592;SDS011;4334;49.982;8.398;2023-04-15T04:58:52;9.83;;;4.33;;
8592;SDS011;4334;49.982;8.398;2023-04-15T05:01:18;12.27;;;4.60;;
8592;SDS011;4334;49.982;8.398;2023-04-15T05:03:45;12.13;;;4.53;;
8592;SDS011;4334;49.982;8.398;2023-04-15T05:06:12;7.30;;;3.87;;
8592;SDS011;4334;49.982;8.398;2023-04-15T05:08:40;11.13;;;4.40;;
8592;SDS011;4334;49.982;8.398;2023-04-15T05:11:07;9.00;;;3.70;;
8592;SDS011;4334;49.982;8.398;2023-04-15T05:13:34;9.23;;;3.83;;
8592;SDS011;4334;49.982;8.398;2023-04-15T05:16:02;9.23;;;4.20;;
8592;SDS011;4334;49.982;8.398;2023-04-15T05:18:30;10.53;;;4.70;;
8592;SDS011;4334;49.982;8.398;2023-04-15T05:20:56;10.20;;;4.50;;
8592;SDS011;4334;49.982;8.398;2023-04-15T05:23:24;10.97;;;4.73;;
8592;SDS011;4334;49.982;8.398;2023-04-15T05:25:52;10.70;;;4.47;;
8592;SDS011;4334;49.982;8.398;2023-04-15T05:28:19;10.30;;;4.67;;
8592;SDS011;4334;49.982;8.398;2023-04-15T05:30:46;13.63;;;4.90;;
8592;SDS011;4334;49.982;8.398;2023-04-15T05:33:13;9.20;;;4.53;;
8592;SDS011;4334;49.982;8.398;2023-04-15T05:35:39;13.70;;;4.57;;
8592;SDS011;4334;49.982;8.398;2023-04-15T05:38:06;10.03;;;4.60;;
8592;SDS011;4334;49.982;8.398;2023-04-15T05:40:33;7.67;;;4.40;;
8592;SDS011;4334;49.982;8.398;2023-04-15T05:43:01;10.87;;;4.30;;
8592;SDS011;4334;49.982;8.398;2023-04-15T05:45:28;8.43;;;4.23;;
8592;SDS011;4334;49.982;8.398;2023-04-15T05:47:55;12.03;;;4.40;;
8592;SDS011;4334;49.982;8.398;2023-04-15T05:50:21;11.10;;;5.23;;
8592;SDS011;4334;49.982;8.398;2023-04-15T05:52:48;9.80;;;4.27;;
8592;SDS011;4334;49.982;8.398;2023-04-15T05:55:15;15.00;;;4.83;;
8592;SDS011;4334;49.982;8.398;2023-04-15T05:57:41;10.37;;;4.13;;
8592;SDS011;4334;49.982;8.398;2023-04-15T06:00:13;9.90;;;4.57;;
8592;SDS011;4334;49.982;8.398;2023-04-15T06:02:40;8.30;;;4.00;;
8592;SDS011;4334;49.982;8.398;2023-04-15T06:05:07;7.33;;;4.43;;
8592;SDS011;4334;49.982;8.398;2023-04-15T06:07:37;9.50;;;4.40;;
8592;SDS011;4334;49.982;8.398;2023-04-15T06:10:04;9.23;;;3.97;;
8592;SDS011;4334;49.982;8.398;2023-04-15T06:12:40;12.07;;;4.07;;
8592;SDS011;4334;49.982;8.398;2023-04-15T06:15:07;7.63;;;3.80;;
8592;SDS011;4334;49.982;8.398;2023-04-15T06:17:37;6.97;;;3.93;;
8592;SDS011;4334;49.982;8.398;2023-04-15T06:20:05;8.17;;;3.87;;
8592;SDS011;4334;49.982;8.398;2023-04-15T06:22:33;9.67;;;3.70;;
8592;SDS011;4334;49.982;8.398;2023-04-15T06:25:02;6.10;;;3.63;;
8592;SDS011;4334;49.982;8.398;2023-04-15T06:27:35;5.67;;;3.70;;
8592;SDS011;4334;49.982;8.398;2023-04-15T06:30:02;7.50;;;3.33;;
8592;SDS011;4334;49.982;8.398;2023-04-15T06:32:30;8.07;;;3.40;;
8592;SDS011;4334;49.982;8.398;2023-04-15T06:34:58;6.43;;;3.83;;
8592;SDS011;4334;49.982;8.398;2023-04-15T06:37:26;8.90;;;3.10;;
8592;SDS011;4334;49.982;8.398;2023-04-15T06:39:53;6.30;;;3.37;;
8592;SDS011;4334;49.982;8.398;2023-04-15T06:42:20;6.20;;;3.20;;
8592;SDS011;4334;49.982;8.398;2023-04-15T06:44:46;7.60;;;3.37;;
8592;SDS011;4334;49.982;8.398;2023-04-15T06:47:13;5.13;;;2.97;;
8592;SDS011;4334;49.982;8.398;2023-04-15T06:49:40;6.67;;;3.00;;
8592;SDS011;4334;49.982;8.398;2023-04-15T06:52:10;5.90;;;2.73;;
8592;SDS011;4334;49.982;8.398;2023-04-15T06:54:37;5.50;;;2.70;;
8592;SDS011;4334;49.982;8.398;2023-04-15T06:57:03;7.10;;;3.13;;
8592;SDS011;4334;49.982;8.398;2023-04-15T06:59:31;7.03;;;2.97;;
8592;SDS011;4334;49.982;8.398;2023-04-15T07:01:58;5.70;;;2.93;;
8592;SDS011;4334;49.982;8.398;2023-04-15T07:04:24;6.33;;;3.07;;
8592;SDS011;4334;49.982;8.398;2023-04-15T07:06:51;4.47;;;3.10;;
8592;SDS011;4334;49.982;8.398;2023-04-15T07:09:20;4.80;;;2.93;;
8592;SDS011;4334;49.982;8.398;2023-04-15T07:11:48;5.67;;;3.00;;
8592;SDS011;4334;49.982;8.398;2023-04-15T07:14:15;5.83;;;3.23;;
8592;SDS011;4334;49.982;8.398;2023-04-15T07:16:42;6.97;;;3.60;;
8592;SDS011;4334;49.982;8.398;2023-04-15T07:19:09;4.90;;;3.17;;
8592;SDS011;4334;49.982;8.398;2023-04-15T07:21:36;10.17;;;3.63;;
8592;SDS011;4334;49.982;8.398;2023-04-15T07:24:03;5.90;;;3.00;;
8592;SDS011;4334;49.982;8.398;2023-04-15T07:26:31;9.23;;;3.07;;
8592;SDS011;4334;49.982;8.398;2023-04-15T07:28:58;6.80;;;3.07;;
8592;SDS011;4334;49.982;8.398;2023-04-15T07:31:24;5.03;;;3.50;;
8592;SDS011;4334;49.982;8.398;2023-04-15T07:33:51;5.30;;;3.20;;
8592;SDS011;4334;49.982;8.398;2023-04-15T07:36:18;5.37;;;2.90;;
8592;SDS011;4334;49.982;8.398;2023-04-15T07:38:45;5.37;;;3.07;;
8592;SDS011;4334;49.982;8.398;2023-04-15T07:41:12;6.80;;;3.20;;
8592;SDS011;4334;49.982;8.398;2023-04-15T07:43:41;6.60;;;2.67;;
8592;SDS011;4334;49.982;8.398;2023-04-15T07:46:08;5.23;;;2.60;;
8592;SDS011;4334;49.982;8.398;2023-04-15T07:48:35;3.77;;;2.57;;
8592;SDS011;4334;49.982;8.398;2023-04-15T07:51:02;6.23;;;2.70;;
8592;SDS011;4334;49.982;8.398;2023-04-15T07:53:29;5.47;;;2.77;;
8592;SDS011;4334;49.982;8.398;2023-04-15T07:55:58;5.70;;;2.77;;
8592;SDS011;4334;49.982;8.398;2023-04-15T07:58:25;5.07;;;2.93;;
8592;SDS011;4334;49.982;8.398;2023-04-15T08:00:53;4.83;;;2.83;;
8592;SDS011;4334;49.982;8.398;2023-04-15T08:03:20;5.30;;;3.07;;
8592;SDS011;4334;49.982;8.398;2023-04-15T08:05:47;5.90;;;2.80;;
8592;SDS011;4334;49.982;8.398;2023-04-15T08:08:14;6.20;;;3.57;;
8592;SDS011;4334;49.982;8.398;2023-04-15T08:10:41;5.60;;;3.43;;
8592;SDS011;4334;49.982;8.398;2023-04-15T08:13:07;6.93;;;3.40;;
8592;SDS011;4334;49.982;8.398;2023-04-15T08:15:34;7.60;;;3.90;;
8592;SDS011;4334;49.982;8.398;2023-04-15T08:18:03;4.63;;;3.70;;
8592;SDS011;4334;49.982;8.398;2023-04-15T08:20:30;6.03;;;3.90;;
8592;SDS011;4334;49.982;8.398;2023-04-15T08:22:57;5.80;;;3.83;;
8592;SDS011;4334;49.982;8.398;2023-04-15T08:25:24;4.63;;;3.60;;
8592;SDS011;4334;49.982;8.398;2023-04-15T08:27:51;6.07;;;3.83;;
8592;SDS011;4334;49.982;8.398;2023-04-15T08:30:20;5.67;;;4.03;;
8592;SDS011;4334;49.982;8.398;2023-04-15T08:32:46;7.73;;;4.50;;
8592;SDS011;4334;49.982;8.398;2023-04-15T08:35:15;6.47;;;4.50;;
8592;SDS011;4334;49.982;8.398;2023-04-15T08:37:42;8.13;;;4.53;;
8592;SDS011;4334;49.982;8.398;2023-04-15T08:40:10;7.45;;;4.18;;
8592;SDS011;4334;49.982;8.398;2023-04-15T08:42:40;6.20;;;4.20;;
8592;SDS011;4334;49.982;8.398;2023-04-15T08:45:10;5.30;;;4.25;;
8592;SDS011;4334;49.982;8.398;2023-04-15T08:47:37;8.77;;;4.32;;
8592;SDS011;4334;49.982;8.398;2023-04-15T08:50:07;4.45;;;4.00;;
8592;SDS011;4334;49.982;8.398;2023-04-15T08:52:39;6.68;;;4.32;;
8592;SDS011;4334;49.982;8.398;2023-04-15T08:55:06;6.85;;;4.47;;
8592;SDS011;4334;49.982;8.398;2023-04-15T08:57:41;7.30;;;4.27;;
8592;SDS011;4334;49.982;8.398;2023-04-15T09:00:11;6.78;;;4.45;;
8592;SDS011;4334;49.982;8.398;2023-04-15T09:02:39;5.07;;;4.40;;
8592;SDS011;4334;49.982;8.398;2023-04-15T09:05:06;4.75;;;3.95;;
8592;SDS011;4334;49.982;8.398;2023-04-15T09:07:38;5.03;;;4.03;;
8592;SDS011;4334;49.982;8.398;2023-04-15T09:10:05;5.47;;;3.75;;
8592;SDS011;4334;49.982;8.398;2023-04-15T09:12:33;5.50;;;3.72;;
8592;SDS011;4334;49.982;8.398;2023-04-15T09:15:01;4.28;;;3.80;;
8592;SDS011;4334;49.982;8.398;2023-04-15T09:17:29;6.00;;;3.80;;
8592;SDS011;4334;49.982;8.398;2023-04-15T09:20:08;4.15;;;3.75;;
8592;SDS011;4334;49.982;8.398;2023-04-15T09:22:40;6.22;;;3.70;;
8592;SDS011;4334;49.982;8.398;2023-04-15T09:25:24;4.32;;;3.47;;
8592;SDS011;4334;49.982;8.398;2023-04-15T09:27:53;4.78;;;3.33;;
8592;SDS011;4334;49.982;8.398;2023-04-15T09:30:20;4.25;;;3.80;;
8592;SDS011;4334;49.982;8.398;2023-04-15T09:32:48;3.77;;;3.03;;
8592;SDS011;4334;49.982;8.398;2023-04-15T09:35:16;4.73;;;3.40;;
8592;SDS011;4334;49.982;8.398;2023-04-15T09:37:44;5.00;;;3.30;;
8592;SDS011;4334;49.982;8.398;2023-04-15T09:40:11;4.23;;;3.60;;
8592;SDS011;4334;49.982;8.398;2023-04-15T09:42:52;5.30;;;3.63;;
8592;SDS011;4334;49.982;8.398;2023-04-15T09:45:20;4.77;;;3.83;;
8592;SDS011;4334;49.982;8.398;2023-04-15T09:47:47;7.63;;;3.70;;
8592;SDS011;4334;49.982;8.398;2023-04-15T09:50:15;5.77;;;3.40;;
8592;SDS011;4334;49.982;8.398;2023-04-15T09:52:42;7.22;;;4.10;;
8592;SDS011;4334;49.982;8.398;2023-04-15T09:55:11;4.63;;;3.08;;
8592;SDS011;4334;49.982;8.398;2023-04-15T09:57:39;5.30;;;3.50;;
8592;SDS011;4334;49.982;8.398;2023-04-15T10:02:50;6.90;;;3.40;;
8592;SDS011;4334;49.982;8.398;2023-04-15T10:05:17;7.30;;;5.05;;
8592;SDS011;4334;49.982;8.398;2023-04-15T10:07:44;5.47;;;3.22;;
8592;SDS011;4334;49.982;8.398;2023-04-15T10:10:13;4.18;;;2.83;;
8592;SDS011;4334;49.982;8.398;2023-04-15T10:12:40;5.05;;;2.33;;
8592;SDS011;4334;49.982;8.398;2023-04-15T10:15:13;4.10;;;2.40;;
8592;SDS011;4334;49.982;8.398;2023-04-15T10:17:42;3.55;;;2.30;;
8592;SDS011;4334;49.982;8.398;2023-04-15T10:20:10;8.02;;;2.40;;
8592;SDS011;4334;49.982;8.398;2023-04-15T10:22:39;3.47;;;2.10;;
8592;SDS011;4334;49.982;8.398;2023-04-15T10:25:07;2.47;;;1.92;;
8592;SDS011;4334;49.982;8.398;2023-04-15T10:27:39;2.13;;;1.73;;
8592;SDS011;4334;49.982;8.398;2023-04-15T10:30:07;2.80;;;1.70;;
8592;SDS011;4334;49.982;8.398;2023-04-15T10:32:35;2.78;;;1.92;;
8592;SDS011;4334;49.982;8.398;2023-04-15T10:35:03;2.93;;;2.10;;
8592;SDS011;4334;49.982;8.398;2023-04-15T10:37:34;5.57;;;2.70;;
8592;SDS011;4334;49.982;8.398;2023-04-15T10:42:51;2.57;;;1.53;;
8592;SDS011;4334;49.982;8.398;2023-04-15T10:45:19;3.07;;;1.60;;
8592;SDS011;4334;49.982;8.398;2023-04-15T10:47:46;6.73;;;1.73;;
8592;SDS011;4334;49.982;8.398;2023-04-15T10:50:18;3.30;;;1.90;;
8592;SDS011;4334;49.982;8.398;2023-04-15T10:52:45;5.27;;;2.90;;
8592;SDS011;4334;49.982;8.398;2023-04-15T10:55:17;2.60;;;1.50;;
8592;SDS011;4334;49.982;8.398;2023-04-15T10:57:45;3.97;;;2.10;;
8592;SDS011;4334;49.982;8.398;2023-04-15T11:00:17;4.97;;;1.80;;
8592;SDS011;4334;49.982;8.398;2023-04-15T11:02:46;3.13;;;1.60;;
8592;SDS011;4334;49.982;8.398;2023-04-15T11:05:17;3.93;;;1.43;;
8592;SDS011;4334;49.982;8.398;2023-04-15T11:07:52;2.93;;;2.10;;
8592;SDS011;4334;49.982;8.398;2023-04-15T11:13:27;2.17;;;1.50;;
8592;SDS011;4334;49.982;8.398;2023-04-15T11:15:57;2.57;;;1.80;;
8592;SDS011;4334;49.982;8.398;2023-04-15T11:18:26;2.13;;;1.70;;
8592;SDS011;4334;49.982;8.398;2023-04-15T11:20:55;3.17;;;1.70;;
8592;SDS011;4334;49.982;8.398;2023-04-15T11:23:26;6.17;;;1.80;;
8592;SDS011;4334;49.982;8.398;2023-04-15T11:25:55;2.23;;;1.40;;
8592;SDS011;4334;49.982;8.398;2023-04-15T11:28:24;1.97;;;1.40;;
8592;SDS011;4334;49.982;8.398;2023-04-15T11:30:52;2.50;;;1.70;;
8592;SDS011;4334;49.982;8.398;2023-04-15T11:33:21;2.37;;;1.83;;
8592;SDS011;4334;49.982;8.398;2023-04-15T11:35:49;3.27;;;1.63;;
8592;SDS011;4334;49.982;8.398;2023-04-15T11:38:16;2.37;;;1.60;;
8592;SDS011;4334;49.982;8.398;2023-04-15T11:40:43;3.03;;;1.57;;
8592;SDS011;4334;49.982;8.398;2023-04-15T11:43:10;2.47;;;1.40;;
8592;SDS011;4334;49.982;8.398;2023-04-15T11:45:46;3.10;;;1.50;;
8592;SDS011;4334;49.982;8.398;2023-04-15T11:48:15;4.07;;;1.77;;
8592;SDS011;4334;49.982;8.398;2023-04-15T11:50:44;2.33;;;1.60;;
8592;SDS011;4334;49.982;8.398;2023-04-15T11:53:12;3.00;;;1.70;;
8592;SDS011;4334;49.982;8.398;2023-04-15T11:55:40;3.83;;;1.70;;
8592;SDS011;4334;49.982;8.398;2023-04-15T11:58:09;2.80;;;1.70;;
8592;SDS011;4334;49.982;8.398;2023-04-15T12:00:37;1.90;;;1.50;;
8592;SDS011;4334;49.982;8.398;2023-04-15T12:03:12;1.50;;;1.40;;
8592;SDS011;4334;49.982;8.398;2023-04-15T12:11:45;1.67;;;1.20;;
8592;SDS011;4334;49.982;8.398;2023-04-15T12:14:20;2.10;;;1.50;;
8592;SDS011;4334;49.982;8.398;2023-04-15T12:16:50;1.60;;;1.30;;
8592;SDS011;4334;49.982;8.398;2023-04-15T12:19:22;2.63;;;1.23;;
8592;SDS011;4334;49.982;8.398;2023-04-15T12:21:52;1.73;;;1.50;;
8592;SDS011;4334;49.982;8.398;2023-04-15T12:24:22;1.30;;;1.20;;
8592;SDS011;4334;49.982;8.398;2023-04-15T12:26:50;1.63;;;1.40;;
8592;SDS011;4334;49.982;8.398;2023-04-15T12:29:18;1.70;;;1.27;;
8592;SDS011;4334;49.982;8.398;2023-04-15T12:31:46;2.70;;;1.47;;
8592;SDS011;4334;49.982;8.398;2023-04-15T12:34:15;3.67;;;1.33;;
8592;SDS011;4334;49.982;8.398;2023-04-15T12:36:42;1.70;;;1.40;;
8592;SDS011;4334;49.982;8.398;2023-04-15T12:39:11;2.73;;;1.33;;
8592;SDS011;4334;49.982;8.398;2023-04-15T12:41:38;1.77;;;1.50;;
8592;SDS011;4334;49.982;8.398;2023-04-15T12:44:06;1.70;;;1.40;;
8592;SDS011;4334;49.982;8.398;2023-04-15T12:46:33;1.33;;;1.23;;
8592;SDS011;4334;49.982;8.398;2023-04-15T12:49:00;1.63;;;1.20;;
8592;SDS011;4334;49.982;8.398;2023-04-15T12:51:26;1.60;;;1.00;;
8592;SDS011;4334;49.982;8.398;2023-04-15T12:53:53;1.33;;;1.20;;
8592;SDS011;4334;49.982;8.398;2023-04-15T12:56:21;1.30;;;1.20;;
8592;SDS011;4334;49.982;8.398;2023-04-15T12:58:48;1.33;;;1.20;;
8592;SDS011;4334;49.982;8.398;2023-04-15T13:01:15;1.87;;;1.10;;
8592;SDS011;4334;49.982;8.398;2023-04-15T13:03:42;1.40;;;1.10;;
8592;SDS011;4334;49.982;8.398;2023-04-15T13:06:09;1.13;;;1.03;;
8592;SDS011;4334;49.982;8.398;2023-04-15T13:08:36;1.20;;;1.00;;
8592;SDS011;4334;49.982;8.398;2023-04-15T13:11:03;2.80;;;1.40;;
8592;SDS011;4334;49.982;8.398;2023-04-15T13:13:31;1.40;;;1.30;;
8592;SDS011;4334;49.982;8.398;2023-04-15T13:15:58;1.40;;;1.30;;
8592;SDS011;4334;49.982;8.398;2023-04-15T13:18:25;1.67;;;1.57;;
8592;SDS011;4334;49.982;8.398;2023-04-15T13:20:52;2.10;;;1.37;;
8592;SDS011;4334;49.982;8.398;2023-04-15T13:23:19;2.33;;;1.30;;
8592;SDS011;4334;49.982;8.398;2023-04-15T13:25:46;1.60;;;1.50;;
8592;SDS011;4334;49.982;8.398;2023-04-15T13:28:13;1.50;;;1.40;;
8592;SDS011;4334;49.982;8.398;2023-04-15T13:30:41;1.30;;;1.20;;
8592;SDS011;4334;49.982;8.398;2023-04-15T13:33:10;2.13;;;1.40;;
8592;SDS011;4334;49.982;8.398;2023-04-15T13:35:37;1.70;;;1.40;;
8592;SDS011;4334;49.982;8.398;2023-04-15T13:38:05;1.90;;;1.60;;
8592;SDS011;4334;49.982;8.398;2023-04-15T13:40:31;2.33;;;1.50;;
8592;SDS011;4334;49.982;8.398;2023-04-15T13:42:58;1.67;;;1.43;;
8592;SDS011;4334;49.982;8.398;2023-04-15T13:45:26;1.97;;;1.40;;
8592;SDS011;4334;49.982;8.398;2023-04-15T13:47:54;1.50;;;1.40;;
8592;SDS011;4334;49.982;8.398;2023-04-15T13:50:21;1.57;;;1.40;;
8592;SDS011;4334;49.982;8.398;2023-04-15T13:52:47;1.40;;;1.30;;
8592;SDS011;4334;49.982;8.398;2023-04-15T13:55:14;1.60;;;1.50;;
8592;SDS011;4334;49.982;8.398;2023-04-15T13:57:41;1.60;;;1.50;;
8592;SDS011;4334;49.982;8.398;2023-04-15T14:00:09;3.20;;;1.70;;
8592;SDS011;4334;49.982;8.398;2023-04-15T14:02:36;1.60;;;1.50;;
8592;SDS011;4334;49.982;8.398;2023-04-15T14:05:07;2.10;;;1.50;;
8592;SDS011;4334;49.982;8.398;2023-04-15T14:07:34;2.80;;;1.70;;
8592;SDS011;4334;49.982;8.398;2023-04-15T14:10:01;1.90;;;1.80;;
8592;SDS011;4334;49.982;8.398;2023-04-15T14:12:29;2.40;;;1.87;;
8592;SDS011;4334;49.982;8.398;2023-04-15T14:14:55;2.77;;;2.00;;
8592;SDS011;4334;49.982;8.398;2023-04-15T14:17:22;3.30;;;1.73;;
8592;SDS011;4334;49.982;8.398;2023-04-15T14:19:49;2.13;;;2.00;;
8592;SDS011;4334;49.982;8.398;2023-04-15T14:22:17;2.03;;;1.90;;
8592;SDS011;4334;49.982;8.398;2023-04-15T14:24:44;1.80;;;1.70;;
8592;SDS011;4334;49.982;8.398;2023-04-15T14:27:12;1.87;;;1.70;;
8592;SDS011;4334;49.982;8.398;2023-04-15T14:29:40;1.83;;;1.73;;
8592;SDS011;4334;49.982;8.398;2023-04-15T14:32:07;2.20;;;1.73;;
8592;SDS011;4334;49.982;8.398;2023-04-15T14:34:33;1.77;;;1.57;;
8592;SDS011;4334;49.982;8.398;2023-04-15T14:37:01;1.70;;;1.60;;
8592;SDS011;4334;49.982;8.398;2023-04-15T14:39:30;1.77;;;1.50;;
8592;SDS011;4334;49.982;8.398;2023-04-15T14:41:57;2.47;;;1.40;;
8592;SDS011;4334;49.982;8.398;2023-04-15T14:44:24;2.17;;;1.80;;
8592;SDS011;4334;49.982;8.398;2023-04-15T14:46:51;1.40;;;1.30;;
8592;SDS011;4334;49.982;8.398;2023-04-15T14:49:17;1.73;;;1.50;;
8592;SDS011;4334;49.982;8.398;2023-04-15T14:51:44;2.77;;;2.20;;
8592;SDS011;4334;49.982;8.398;2023-04-15T14:54:11;3.60;;;1.83;;
8592;SDS011;4334;49.982;8.398;2023-04-15T14:56:39;1.90;;;1.70;;
8592;SDS011;4334;49.982;8.398;2023-04-15T14:59:06;1.60;;;1.50;;
8592;SDS011;4334;49.982;8.398;2023-04-15T15:01:33;2.47;;;2.27;;
8592;SDS011;4334;49.982;8.398;2023-04-15T15:04:00;1.87;;;1.70;;
8592;SDS011;4334;49.982;8.398;2023-04-15T15:06:26;2.27;;;1.60;;
8592;SDS011;4334;49.982;8.398;2023-04-15T15:08:53;2.03;;;1.83;;
8592;SDS011;4334;49.982;8.398;2023-04-15T15:11:20;3.40;;;2.10;;
8592;SDS011;4334;49.982;8.398;2023-04-15T15:13:48;3.33;;;2.00;;
8592;SDS011;4334;49.982;8.398;2023-04-15T15:16:15;2.33;;;2.13;;
8592;SDS011;4334;49.982;8.398;2023-04-15T15:18:42;2.30;;;2.10;;
8592;SDS011;4334;49.982;8.398;2023-04-15T15:21:10;3.10;;;2.17;;
8592;SDS011;4334;49.982;8.398;2023-04-15T15:23:36;3.33;;;2.50;;
8592;SDS011;4334;49.982;8.398;2023-04-15T15:26:04;3.00;;;2.03;;
8592;SDS011;4334;49.982;8.398;2023-04-15T15:28:31;2.80;;;2.03;;
8592;SDS011;4334;49.982;8.398;2023-04-15T15:31:00;2.50;;;2.30;;